sensor_id;sensor_type;location;lat;lon;timestamp;temperature;humidity
17827;DHT22;9038;48.208;16.308;2023-07-24T10:22:21;48.30;30.10
17827;DHT22;9038;48.208;16.308;2023-07-24T10:24:29;48.60;30.00
17827;DHT22;9038;48.208;16.308;2023-07-24T10:26:30;49.10;30.10
17827;DHT22;9038;48.208;16.308;2023-07-24T10:28:33;49.30;29.80
17827;DHT22;9038;48.208;16.308;2023-07-24T10:30:39;49.70;29.40
17827;DHT22;9038;48.208;16.308;2023-07-24T10:32:45;49.70;29.20
17827;DHT22;9038;48.208;16.308;2023-07-24T10:34:58;49.30;29.20
17827;DHT22;9038;48.208;16.308;2023-07-24T10:37:02;49.50;29.30
17827;DHT22;9038;48.208;16.308;2023-07-24T10:39:13;49.70;29.20
17827;DHT22;9038;48.208;16.308;2023-07-24T10:41:15;49.90;29.30
17827;DHT22;9038;48.208;16.308;2023-07-24T10:43:19;49.50;28.80
17827;DHT22;9038;48.208;16.308;2023-07-24T10:45:22;49.30;29.40
17827;DHT22;9038;48.208;16.308;2023-07-24T10:47:22;49.00;29.30
17827;DHT22;9038;48.208;16.308;2023-07-24T10:49:24;48.90;29.40
17827;DHT22;9038;48.208;16.308;2023-07-24T10:51:29;48.90;29.30
17827;DHT22;9038;48.208;16.308;2023-07-24T10:53:35;48.90;29.00
17827;DHT22;9038;48.208;16.308;2023-07-24T10:55:36;48.70;28.50
17827;DHT22;9038;48.208;16.308;2023-07-24T10:57:38;48.60;29.10
17827;DHT22;9038;48.208;16.308;2023-07-24T10:59:40;48.80;29.00
17827;DHT22;9038;48.208;16.308;2023-07-24T11:01:42;48.80;28.70
17827;DHT22;9038;48.208;16.308;2023-07-24T11:03:44;49.00;28.50
17827;DHT22;9038;48.208;16.308;2023-07-24T11:05:47;48.70;28.30
17827;DHT22;9038;48.208;16.308;2023-07-24T11:07:50;48.30;29.10
17827;DHT22;9038;48.208;16.308;2023-07-24T11:09:51;47.90;29.10
17827;DHT22;9038;48.208;16.308;2023-07-24T11:11:54;47.70;29.40
17827;DHT22;9038;48.208;16.308;2023-07-24T11:13:55;47.30;29.50
17827;DHT22;9038;48.208;16.308;2023-07-24T11:16:04;47.10;29.50
17827;DHT22;9038;48.208;16.308;2023-07-24T11:18:06;46.90;30.00
17827;DHT22;9038;48.208;16.308;2023-07-24T11:20:10;46.20;30.50
17827;DHT22;9038;48.208;16.308;2023-07-24T11:22:12;45.30;30.50
17827;DHT22;9038;48.208;16.308;2023-07-24T11:24:14;44.80;31.40
17827;DHT22;9038;48.208;16.308;2023-07-24T11:26:19;44.60;32.40
17827;DHT22;9038;48.208;16.308;2023-07-24T11:28:21;44.20;32.20
17827;DHT22;9038;48.208;16.308;2023-07-24T11:30:23;43.60;33.50
17827;DHT22;9038;48.208;16.308;2023-07-24T11:32:24;43.20;34.30
17827;DHT22;9038;48.208;16.308;2023-07-24T11:34:26;43.00;35.00
17827;DHT22;9038;48.208;16.308;2023-07-24T11:36:29;43.10;34.90
17827;DHT22;9038;48.208;16.308;2023-07-24T11:38:30;43.50;35.00
17827;DHT22;9038;48.208;16.308;2023-07-24T11:40:34;43.70;34.20
17827;DHT22;9038;48.208;16.308;2023-07-24T11:42:37;43.60;33.80
17827;DHT22;9038;48.208;16.308;2023-07-24T11:44:38;43.80;32.70
17827;DHT22;9038;48.208;16.308;2023-07-24T11:46:41;43.50;31.40
17827;DHT22;9038;48.208;16.308;2023-07-24T11:48:43;43.40;33.10
17827;DHT22;9038;48.208;16.308;2023-07-24T11:50:45;43.20;31.70
17827;DHT22;9038;48.208;16.308;2023-07-24T11:52:47;42.60;32.60
17827;DHT22;9038;48.208;16.308;2023-07-24T11:54:55;42.30;32.60
17827;DHT22;9038;48.208;16.308;2023-07-24T11:56:59;41.70;33.10
17827;DHT22;9038;48.208;16.308;2023-07-24T11:59:08;41.20;33.60
17827;DHT22;9038;48.208;16.308;2023-07-24T12:01:10;41.30;33.30
17827;DHT22;9038;48.208;16.308;2023-07-24T12:03:13;41.20;33.50
17827;DHT22;9038;48.208;16.308;2023-07-24T12:05:15;41.00;33.10
17827;DHT22;9038;48.208;16.308;2023-07-24T12:07:17;40.80;34.30
17827;DHT22;9038;48.208;16.308;2023-07-24T12:09:18;40.60;33.70
17827;DHT22;9038;48.208;16.308;2023-07-24T12:11:20;40.60;34.00
17827;DHT22;9038;48.208;16.308;2023-07-24T12:13:25;40.90;34.30
17827;DHT22;9038;48.208;16.308;2023-07-24T12:15:26;41.20;33.90
17827;DHT22;9038;48.208;16.308;2023-07-24T12:17:28;41.00;33.50
17827;DHT22;9038;48.208;16.308;2023-07-24T12:19:30;40.70;33.70
17827;DHT22;9038;48.208;16.308;2023-07-24T12:21:32;40.20;34.00
17827;DHT22;9038;48.208;16.308;2023-07-24T12:23:34;39.90;34.40
17827;DHT22;9038;48.208;16.308;2023-07-24T12:25:35;39.60;35.00
17827;DHT22;9038;48.208;16.308;2023-07-24T12:27:37;39.40;34.90
17827;DHT22;9038;48.208;16.308;2023-07-24T12:29:41;39.60;35.30
17827;DHT22;9038;48.208;16.308;2023-07-24T12:31:43;40.00;35.20
17827;DHT22;9038;48.208;16.308;2023-07-24T12:33:44;40.40;34.50
17827;DHT22;9038;48.208;16.308;2023-07-24T12:35:46;40.80;34.20
17827;DHT22;9038;48.208;16.308;2023-07-24T12:37:48;41.10;33.90
17827;DHT22;9038;48.208;16.308;2023-07-24T12:39:49;41.40;33.60
17827;DHT22;9038;48.208;16.308;2023-07-24T12:41:51;41.70;34.10
17827;DHT22;9038;48.208;16.308;2023-07-24T12:43:53;42.40;33.60
17827;DHT22;9038;48.208;16.308;2023-07-24T12:45:56;42.70;32.50
17827;DHT22;9038;48.208;16.308;2023-07-24T12:47:58;42.80;32.40
17827;DHT22;9038;48.208;16.308;2023-07-24T12:49:59;42.80;32.60
17827;DHT22;9038;48.208;16.308;2023-07-24T12:52:01;42.60;32.60
17827;DHT22;9038;48.208;16.308;2023-07-24T12:54:02;42.40;33.00
17827;DHT22;9038;48.208;16.308;2023-07-24T12:56:04;42.30;33.70
17827;DHT22;9038;48.208;16.308;2023-07-24T12:58:05;41.90;34.20
17827;DHT22;9038;48.208;16.308;2023-07-24T13:00:07;41.70;34.90
17827;DHT22;9038;48.208;16.308;2023-07-24T13:02:10;41.60;35.40
17827;DHT22;9038;48.208;16.308;2023-07-24T13:04:12;41.40;35.60
17827;DHT22;9038;48.208;16.308;2023-07-24T13:06:14;41.20;35.90
17827;DHT22;9038;48.208;16.308;2023-07-24T13:08:15;41.00;36.10
17827;DHT22;9038;48.208;16.308;2023-07-24T13:10:16;40.90;35.90
17827;DHT22;9038;48.208;16.308;2023-07-24T13:12:18;40.90;36.10
17827;DHT22;9038;48.208;16.308;2023-07-24T13:14:20;41.20;35.90
17827;DHT22;9038;48.208;16.308;2023-07-24T13:16:21;41.40;35.90
17827;DHT22;9038;48.208;16.308;2023-07-24T13:18:24;41.40;35.90
17827;DHT22;9038;48.208;16.308;2023-07-24T13:20:25;41.20;36.20
17827;DHT22;9038;48.208;16.308;2023-07-24T13:22:27;40.90;36.50
17827;DHT22;9038;48.208;16.308;2023-07-24T13:24:28;40.50;37.20
17827;DHT22;9038;48.208;16.308;2023-07-24T13:26:29;40.50;38.40
17827;DHT22;9038;48.208;16.308;2023-07-24T13:28:30;40.40;37.80
17827;DHT22;9038;48.208;16.308;2023-07-24T13:30:32;40.30;38.00
17827;DHT22;9038;48.208;16.308;2023-07-24T13:32:33;40.20;38.30
17827;DHT22;9038;48.208;16.308;2023-07-24T13:34:37;40.20;38.90
17827;DHT22;9038;48.208;16.308;2023-07-24T13:36:39;40.00;39.20
17827;DHT22;9038;48.208;16.308;2023-07-24T13:38:41;39.60;39.80
17827;DHT22;9038;48.208;16.308;2023-07-24T13:40:42;39.30;40.40
17827;DHT22;9038;48.208;16.308;2023-07-24T13:42:43;39.30;40.70
17827;DHT22;9038;48.208;16.308;2023-07-24T13:44:45;39.30;41.30
17827;DHT22;9038;48.208;16.308;2023-07-24T13:46:47;39.40;40.70
17827;DHT22;9038;48.208;16.308;2023-07-24T13:48:49;39.30;40.60
17827;DHT22;9038;48.208;16.308;2023-07-24T13:50:52;39.10;40.70
17827;DHT22;9038;48.208;16.308;2023-07-24T13:52:54;39.00;41.10
17827;DHT22;9038;48.208;16.308;2023-07-24T13:54:56;39.00;40.90
17827;DHT22;9038;48.208;16.308;2023-07-24T13:56:58;39.30;40.30
17827;DHT22;9038;48.208;16.308;2023-07-24T13:59:00;39.40;39.40
17827;DHT22;9038;48.208;16.308;2023-07-24T14:01:03;39.60;39.10
17827;DHT22;9038;48.208;16.308;2023-07-24T14:03:06;39.80;38.80
17827;DHT22;9038;48.208;16.308;2023-07-24T14:05:08;40.00;37.90
17827;DHT22;9038;48.208;16.308;2023-07-24T14:07:11;39.90;37.60
17827;DHT22;9038;48.208;16.308;2023-07-24T14:09:13;39.70;37.70
17827;DHT22;9038;48.208;16.308;2023-07-24T14:11:15;39.60;37.60
17827;DHT22;9038;48.208;16.308;2023-07-24T14:13:17;39.60;37.90
17827;DHT22;9038;48.208;16.308;2023-07-24T14:15:19;39.50;37.60
17827;DHT22;9038;48.208;16.308;2023-07-24T14:17:21;39.40;37.80
17827;DHT22;9038;48.208;16.308;2023-07-24T14:19:23;39.60;37.60
17827;DHT22;9038;48.208;16.308;2023-07-24T14:21:24;39.50;37.60
17827;DHT22;9038;48.208;16.308;2023-07-24T14:23:28;39.60;37.60
17827;DHT22;9038;48.208;16.308;2023-07-24T14:25:30;39.60;36.80
17827;DHT22;9038;48.208;16.308;2023-07-24T14:27:32;39.60;37.50
17827;DHT22;9038;48.208;16.308;2023-07-24T14:29:35;39.50;37.10
17827;DHT22;9038;48.208;16.308;2023-07-24T14:31:37;39.40;38.00
17827;DHT22;9038;48.208;16.308;2023-07-24T14:33:39;39.10;39.60
17827;DHT22;9038;48.208;16.308;2023-07-24T14:35:41;38.70;40.20
17827;DHT22;9038;48.208;16.308;2023-07-24T14:37:43;38.40;40.40
17827;DHT22;9038;48.208;16.308;2023-07-24T14:39:46;38.20;40.50
17827;DHT22;9038;48.208;16.308;2023-07-24T14:41:48;38.10;40.50
17827;DHT22;9038;48.208;16.308;2023-07-24T14:43:51;38.00;40.70
17827;DHT22;9038;48.208;16.308;2023-07-24T14:45:51;38.00;40.30
17827;DHT22;9038;48.208;16.308;2023-07-24T14:47:53;38.10;40.50
17827;DHT22;9038;48.208;16.308;2023-07-24T14:49:56;38.10;39.30
17827;DHT22;9038;48.208;16.308;2023-07-24T14:51:59;38.20;39.70
17827;DHT22;9038;48.208;16.308;2023-07-24T14:54:02;38.30;39.10
17827;DHT22;9038;48.208;16.308;2023-07-24T14:56:06;38.30;38.90
17827;DHT22;9038;48.208;16.308;2023-07-24T14:58:08;38.30;38.40
17827;DHT22;9038;48.208;16.308;2023-07-24T15:00:10;38.40;38.10
17827;DHT22;9038;48.208;16.308;2023-07-24T15:02:11;38.40;38.70
17827;DHT22;9038;48.208;16.308;2023-07-24T15:04:14;38.40;39.30
17827;DHT22;9038;48.208;16.308;2023-07-24T15:06:15;38.40;39.10
17827;DHT22;9038;48.208;16.308;2023-07-24T15:08:17;38.40;39.10
17827;DHT22;9038;48.208;16.308;2023-07-24T15:10:19;38.40;39.10
17827;DHT22;9038;48.208;16.308;2023-07-24T15:12:23;38.50;38.90
17827;DHT22;9038;48.208;16.308;2023-07-24T15:14:25;38.50;38.00
17827;DHT22;9038;48.208;16.308;2023-07-24T15:16:28;38.40;37.90
17827;DHT22;9038;48.208;16.308;2023-07-24T15:18:30;38.30;38.30
17827;DHT22;9038;48.208;16.308;2023-07-24T15:20:46;38.00;38.00
17827;DHT22;9038;48.208;16.308;2023-07-24T15:22:55;37.90;38.40
17827;DHT22;9038;48.208;16.308;2023-07-24T15:24:56;37.80;38.20
17827;DHT22;9038;48.208;16.308;2023-07-24T15:26:58;37.80;38.30
17827;DHT22;9038;48.208;16.308;2023-07-24T15:29:03;37.80;38.30
17827;DHT22;9038;48.208;16.308;2023-07-24T15:31:04;37.90;38.30
17827;DHT22;9038;48.208;16.308;2023-07-24T15:33:07;37.90;37.90
17827;DHT22;9038;48.208;16.308;2023-07-24T15:35:09;38.00;38.20
17827;DHT22;9038;48.208;16.308;2023-07-24T15:37:11;38.00;38.00
17827;DHT22;9038;48.208;16.308;2023-07-24T15:39:13;37.80;37.70
17827;DHT22;9038;48.208;16.308;2023-07-24T15:41:15;37.60;38.10
17827;DHT22;9038;48.208;16.308;2023-07-24T15:43:17;37.50;38.60
17827;DHT22;9038;48.208;16.308;2023-07-24T15:45:20;37.40;38.50
17827;DHT22;9038;48.208;16.308;2023-07-24T15:47:22;37.50;38.60
17827;DHT22;9038;48.208;16.308;2023-07-24T15:49:26;37.50;38.10
17827;DHT22;9038;48.208;16.308;2023-07-24T15:51:28;37.30;38.30
17827;DHT22;9038;48.208;16.308;2023-07-24T15:53:30;37.40;38.30
17827;DHT22;9038;48.208;16.308;2023-07-24T15:55:32;37.30;37.90
17827;DHT22;9038;48.208;16.308;2023-07-24T15:57:33;37.20;38.40
17827;DHT22;9038;48.208;16.308;2023-07-24T15:59:35;37.00;38.20
17827;DHT22;9038;48.208;16.308;2023-07-24T16:01:38;37.00;38.30
17827;DHT22;9038;48.208;16.308;2023-07-24T16:03:40;36.80;38.10
17827;DHT22;9038;48.208;16.308;2023-07-24T16:05:43;36.70;38.40
17827;DHT22;9038;48.208;16.308;2023-07-24T16:07:45;36.70;38.50
17827;DHT22;9038;48.208;16.308;2023-07-24T16:09:47;36.50;38.60
17827;DHT22;9038;48.208;16.308;2023-07-24T16:11:48;36.40;38.90
17827;DHT22;9038;48.208;16.308;2023-07-24T16:13:50;36.40;39.00
17827;DHT22;9038;48.208;16.308;2023-07-24T16:15:51;36.40;39.00
17827;DHT22;9038;48.208;16.308;2023-07-24T16:17:54;36.30;39.10
17827;DHT22;9038;48.208;16.308;2023-07-24T16:19:56;36.20;39.10
17827;DHT22;9038;48.208;16.308;2023-07-24T16:21:58;36.10;39.20
17827;DHT22;9038;48.208;16.308;2023-07-24T16:24:00;36.00;39.50
17827;DHT22;9038;48.208;16.308;2023-07-24T16:26:01;36.00;39.40
17827;DHT22;9038;48.208;16.308;2023-07-24T16:28:03;36.00;39.60
17827;DHT22;9038;48.208;16.308;2023-07-24T16:30:05;36.00;39.50
17827;DHT22;9038;48.208;16.308;2023-07-24T16:32:07;35.90;39.40
17827;DHT22;9038;48.208;16.308;2023-07-24T16:34:11;35.80;39.40
17827;DHT22;9038;48.208;16.308;2023-07-24T16:36:14;35.80;39.70
17827;DHT22;9038;48.208;16.308;2023-07-24T16:38:16;35.70;39.80
17827;DHT22;9038;48.208;16.308;2023-07-24T16:40:18;35.60;39.80
17827;DHT22;9038;48.208;16.308;2023-07-24T16:42:20;35.50;40.40
17827;DHT22;9038;48.208;16.308;2023-07-24T16:44:21;35.50;39.90
17827;DHT22;9038;48.208;16.308;2023-07-24T16:46:24;35.40;39.60
17827;DHT22;9038;48.208;16.308;2023-07-24T16:48:25;35.30;39.80
17827;DHT22;9038;48.208;16.308;2023-07-24T16:50:29;35.20;39.90
17827;DHT22;9038;48.208;16.308;2023-07-24T16:52:32;35.10;40.40
17827;DHT22;9038;48.208;16.308;2023-07-24T16:54:34;35.00;40.30
17827;DHT22;9038;48.208;16.308;2023-07-24T16:56:36;35.00;40.30
17827;DHT22;9038;48.208;16.308;2023-07-24T16:58:38;34.90;40.40
17827;DHT22;9038;48.208;16.308;2023-07-24T17:00:41;34.90;40.40
17827;DHT22;9038;48.208;16.308;2023-07-24T17:02:44;34.80;40.60
17827;DHT22;9038;48.208;16.308;2023-07-24T17:04:47;34.70;40.60
17827;DHT22;9038;48.208;16.308;2023-07-24T17:06:50;34.70;40.50
17827;DHT22;9038;48.208;16.308;2023-07-24T17:08:52;34.60;40.50
17827;DHT22;9038;48.208;16.308;2023-07-24T17:10:54;34.50;40.50
17827;DHT22;9038;48.208;16.308;2023-07-24T17:12:56;34.40;40.60
17827;DHT22;9038;48.208;16.308;2023-07-24T17:14:58;34.30;40.50
17827;DHT22;9038;48.208;16.308;2023-07-24T17:17:01;34.20;40.70
17827;DHT22;9038;48.208;16.308;2023-07-24T17:19:02;34.10;40.60
17827;DHT22;9038;48.208;16.308;2023-07-24T17:21:04;34.00;40.80
17827;DHT22;9038;48.208;16.308;2023-07-24T17:23:08;33.90;40.70
17827;DHT22;9038;48.208;16.308;2023-07-24T17:25:10;33.80;40.70
17827;DHT22;9038;48.208;16.308;2023-07-24T17:27:12;33.70;40.80
17827;DHT22;9038;48.208;16.308;2023-07-24T17:29:15;33.60;40.90
17827;DHT22;9038;48.208;16.308;2023-07-24T17:31:17;33.50;41.10
17827;DHT22;9038;48.208;16.308;2023-07-24T17:33:18;33.40;41.20
17827;DHT22;9038;48.208;16.308;2023-07-24T17:35:20;33.30;41.50
17827;DHT22;9038;48.208;16.308;2023-07-24T17:37:23;33.10;42.00
17827;DHT22;9038;48.208;16.308;2023-07-24T17:39:27;33.00;42.60
17827;DHT22;9038;48.208;16.308;2023-07-24T17:41:29;32.90;43.10
17827;DHT22;9038;48.208;16.308;2023-07-24T17:43:32;32.80;45.50
17827;DHT22;9038;48.208;16.308;2023-07-24T17:51:42;29.00;55.30
17827;DHT22;9038;48.208;16.308;2023-07-24T17:53:45;28.90;55.60
17827;DHT22;9038;48.208;16.308;2023-07-24T17:55:49;28.60;57.90
17827;DHT22;9038;48.208;16.308;2023-07-24T17:57:51;28.30;56.90
17827;DHT22;9038;48.208;16.308;2023-07-24T17:59:53;28.20;57.50
17827;DHT22;9038;48.208;16.308;2023-07-24T18:01:55;28.10;58.20
17827;DHT22;9038;48.208;16.308;2023-07-24T18:03:57;28.00;57.10
17827;DHT22;9038;48.208;16.308;2023-07-24T18:05:59;27.90;59.80
17827;DHT22;9038;48.208;16.308;2023-07-24T18:08:01;28.00;61.70
17827;DHT22;9038;48.208;16.308;2023-07-24T18:10:06;28.10;59.70
17827;DHT22;9038;48.208;16.308;2023-07-24T18:12:13;28.20;60.70
17827;DHT22;9038;48.208;16.308;2023-07-24T18:14:15;28.30;59.80
17827;DHT22;9038;48.208;16.308;2023-07-24T18:16:20;28.30;59.80
17827;DHT22;9038;48.208;16.308;2023-07-24T18:18:23;28.40;59.90
17827;DHT22;9038;48.208;16.308;2023-07-24T18:20:25;28.50;59.70
17827;DHT22;9038;48.208;16.308;2023-07-24T18:22:27;28.50;59.40
17827;DHT22;9038;48.208;16.308;2023-07-24T18:24:29;28.40;61.60
17827;DHT22;9038;48.208;16.308;2023-07-24T18:26:31;28.40;60.30
17827;DHT22;9038;48.208;16.308;2023-07-24T18:28:34;28.30;61.20
17827;DHT22;9038;48.208;16.308;2023-07-24T18:30:36;28.10;62.10
17827;DHT22;9038;48.208;16.308;2023-07-24T18:32:39;27.90;63.70
17827;DHT22;9038;48.208;16.308;2023-07-24T18:34:41;27.70;63.70
17827;DHT22;9038;48.208;16.308;2023-07-24T18:36:44;27.50;64.50
17827;DHT22;9038;48.208;16.308;2023-07-24T18:38:45;27.40;64.10
17827;DHT22;9038;48.208;16.308;2023-07-24T18:40:47;27.10;65.30
17827;DHT22;9038;48.208;16.308;2023-07-24T18:42:50;26.90;66.60
17827;DHT22;9038;48.208;16.308;2023-07-24T18:44:53;26.60;67.30
17827;DHT22;9038;48.208;16.308;2023-07-24T18:46:55;26.40;68.90
17827;DHT22;9038;48.208;16.308;2023-07-24T18:48:58;26.20;70.30
17827;DHT22;9038;48.208;16.308;2023-07-24T18:51:00;26.10;71.50
17827;DHT22;9038;48.208;16.308;2023-07-24T18:53:04;26.00;72.30
17827;DHT22;9038;48.208;16.308;2023-07-24T18:55:06;25.90;73.60
17827;DHT22;9038;48.208;16.308;2023-07-24T18:57:08;25.70;74.90
17827;DHT22;9038;48.208;16.308;2023-07-24T18:59:10;25.50;76.80
17827;DHT22;9038;48.208;16.308;2023-07-24T19:01:14;25.40;77.60
17827;DHT22;9038;48.208;16.308;2023-07-24T19:03:15;25.30;77.40
17827;DHT22;9038;48.208;16.308;2023-07-24T19:05:17;25.30;78.60
17827;DHT22;9038;48.208;16.308;2023-07-24T19:07:19;25.40;78.40
17827;DHT22;9038;48.208;16.308;2023-07-24T19:09:22;25.40;78.70
17827;DHT22;9038;48.208;16.308;2023-07-24T19:11:24;25.40;79.50
17827;DHT22;9038;48.208;16.308;2023-07-24T19:13:27;25.40;80.00
17827;DHT22;9038;48.208;16.308;2023-07-24T19:15:30;25.40;79.90
17827;DHT22;9038;48.208;16.308;2023-07-24T19:17:34;25.40;80.10
17827;DHT22;9038;48.208;16.308;2023-07-24T19:19:36;25.40;80.30
17827;DHT22;9038;48.208;16.308;2023-07-24T19:21:39;25.30;80.10
17827;DHT22;9038;48.208;16.308;2023-07-24T19:23:43;25.30;80.30
17827;DHT22;9038;48.208;16.308;2023-07-24T19:25:45;25.30;81.70
17827;DHT22;9038;48.208;16.308;2023-07-24T19:27:46;25.30;80.90
17827;DHT22;9038;48.208;16.308;2023-07-24T19:29:48;25.30;80.70
17827;DHT22;9038;48.208;16.308;2023-07-24T19:31:51;25.30;80.50
17827;DHT22;9038;48.208;16.308;2023-07-24T19:33:55;25.40;80.60
17827;DHT22;9038;48.208;16.308;2023-07-24T19:35:57;25.40;79.90
17827;DHT22;9038;48.208;16.308;2023-07-24T19:38:01;25.40;79.60
17827;DHT22;9038;48.208;16.308;2023-07-24T19:40:04;25.40;79.10
17827;DHT22;9038;48.208;16.308;2023-07-24T19:42:07;25.40;78.90
17827;DHT22;9038;48.208;16.308;2023-07-24T19:44:10;25.50;78.90
17827;DHT22;9038;48.208;16.308;2023-07-24T19:46:12;25.50;78.80
17827;DHT22;9038;48.208;16.308;2023-07-24T19:48:14;25.50;78.70
17827;DHT22;9038;48.208;16.308;2023-07-24T19:50:17;25.40;78.50
17827;DHT22;9038;48.208;16.308;2023-07-24T19:52:19;25.50;78.60
17827;DHT22;9038;48.208;16.308;2023-07-24T19:54:25;25.50;77.70
17827;DHT22;9038;48.208;16.308;2023-07-24T19:56:28;25.50;77.40
17827;DHT22;9038;48.208;16.308;2023-07-24T19:58:29;25.40;77.50
17827;DHT22;9038;48.208;16.308;2023-07-24T20:00:35;25.50;77.20
17827;DHT22;9038;48.208;16.308;2023-07-24T20:02:38;25.50;76.80
17827;DHT22;9038;48.208;16.308;2023-07-24T20:04:41;25.50;76.80
17827;DHT22;9038;48.208;16.308;2023-07-24T20:06:44;25.40;77.10
17827;DHT22;9038;48.208;16.308;2023-07-24T20:08:46;25.40;76.50
17827;DHT22;9038;48.208;16.308;2023-07-24T20:10:48;25.40;76.50
17827;DHT22;9038;48.208;16.308;2023-07-24T20:12:51;25.40;76.40
17827;DHT22;9038;48.208;16.308;2023-07-24T20:14:53;25.40;75.90
17827;DHT22;9038;48.208;16.308;2023-07-24T20:16:56;25.40;75.90
17827;DHT22;9038;48.208;16.308;2023-07-24T20:18:58;25.30;75.90
17827;DHT22;9038;48.208;16.308;2023-07-24T20:21:00;25.30;75.50
17827;DHT22;9038;48.208;16.308;2023-07-24T20:23:05;25.20;75.30
17827;DHT22;9038;48.208;16.308;2023-07-24T20:25:07;25.20;75.50
17827;DHT22;9038;48.208;16.308;2023-07-24T20:27:09;25.20;74.90
17827;DHT22;9038;48.208;16.308;2023-07-24T20:29:12;25.20;74.80
17827;DHT22;9038;48.208;16.308;2023-07-24T20:31:14;25.20;74.60
17827;DHT22;9038;48.208;16.308;2023-07-24T20:33:16;25.20;73.90
17827;DHT22;9038;48.208;16.308;2023-07-24T20:35:18;25.20;74.50
17827;DHT22;9038;48.208;16.308;2023-07-24T20:37:20;25.20;73.60
17827;DHT22;9038;48.208;16.308;2023-07-24T20:39:24;25.20;73.50
17827;DHT22;9038;48.208;16.308;2023-07-24T20:41:27;25.30;73.20
17827;DHT22;9038;48.208;16.308;2023-07-24T20:43:29;25.30;73.60
17827;DHT22;9038;48.208;16.308;2023-07-24T20:45:32;25.30;72.80
17827;DHT22;9038;48.208;16.308;2023-07-24T20:47:34;25.20;72.50
17827;DHT22;9038;48.208;16.308;2023-07-24T20:49:37;25.30;72.50
17827;DHT22;9038;48.208;16.308;2023-07-24T20:51:39;25.30;72.40
17827;DHT22;9038;48.208;16.308;2023-07-24T20:53:42;25.30;72.20
17827;DHT22;9038;48.208;16.308;2023-07-24T20:55:45;25.30;71.70
17827;DHT22;9038;48.208;16.308;2023-07-24T20:57:47;25.30;71.80
17827;DHT22;9038;48.208;16.308;2023-07-24T20:59:48;25.30;71.60
17827;DHT22;9038;48.208;16.308;2023-07-24T21:01:50;25.30;72.00
17827;DHT22;9038;48.208;16.308;2023-07-24T21:03:52;25.30;72.30
17827;DHT22;9038;48.208;16.308;2023-07-24T21:05:54;25.30;72.80
17827;DHT22;9038;48.208;16.308;2023-07-24T21:07:56;25.30;73.30
17827;DHT22;9038;48.208;16.308;2023-07-24T21:09:59;25.30;73.30
17827;DHT22;9038;48.208;16.308;2023-07-24T21:12:02;25.20;73.70
17827;DHT22;9038;48.208;16.308;2023-07-24T21:14:04;25.20;74.00
17827;DHT22;9038;48.208;16.308;2023-07-24T21:16:06;25.10;74.20
17827;DHT22;9038;48.208;16.308;2023-07-24T21:18:08;25.10;74.40
17827;DHT22;9038;48.208;16.308;2023-07-24T21:20:10;25.10;74.50
17827;DHT22;9038;48.208;16.308;2023-07-24T21:22:11;25.20;74.60
17827;DHT22;9038;48.208;16.308;2023-07-24T21:24:14;25.10;74.80
17827;DHT22;9038;48.208;16.308;2023-07-24T21:26:16;25.10;74.90
17827;DHT22;9038;48.208;16.308;2023-07-24T21:28:20;25.10;75.00
17827;DHT22;9038;48.208;16.308;2023-07-24T21:30:20;25.10;75.30
17827;DHT22;9038;48.208;16.308;2023-07-24T21:32:23;25.00;75.60
17827;DHT22;9038;48.208;16.308;2023-07-24T21:34:24;25.00;76.10
17827;DHT22;9038;48.208;16.308;2023-07-24T21:36:25;25.00;76.20
17827;DHT22;9038;48.208;16.308;2023-07-24T21:38:27;24.90;76.10
17827;DHT22;9038;48.208;16.308;2023-07-24T21:40:29;24.90;76.30
17827;DHT22;9038;48.208;16.308;2023-07-24T21:42:31;24.90;76.70
17827;DHT22;9038;48.208;16.308;2023-07-24T21:44:34;24.80;77.10
17827;DHT22;9038;48.208;16.308;2023-07-24T21:46:36;24.80;77.30
17827;DHT22;9038;48.208;16.308;2023-07-24T21:48:38;24.70;77.70
17827;DHT22;9038;48.208;16.308;2023-07-24T21:50:39;24.70;77.90
17827;DHT22;9038;48.208;16.308;2023-07-24T21:52:41;24.70;78.30
17827;DHT22;9038;48.208;16.308;2023-07-24T21:54:44;24.70;78.40
17827;DHT22;9038;48.208;16.308;2023-07-24T21:56:45;24.70;78.90
17827;DHT22;9038;48.208;16.308;2023-07-24T21:58:47;24.60;78.90
17827;DHT22;9038;48.208;16.308;2023-07-24T22:00:50;24.70;79.10
17827;DHT22;9038;48.208;16.308;2023-07-24T22:02:52;24.70;79.10
17827;DHT22;9038;48.208;16.308;2023-07-24T22:04:53;24.70;79.00
17827;DHT22;9038;48.208;16.308;2023-07-24T22:06:55;24.70;79.00
17827;DHT22;9038;48.208;16.308;2023-07-24T22:08:57;24.80;79.10
17827;DHT22;9038;48.208;16.308;2023-07-24T22:10:58;24.80;78.90
17827;DHT22;9038;48.208;16.308;2023-07-24T22:13:00;24.80;79.10
17827;DHT22;9038;48.208;16.308;2023-07-24T22:15:03;24.90;79.30
17827;DHT22;9038;48.208;16.308;2023-07-24T22:17:05;24.90;79.20
17827;DHT22;9038;48.208;16.308;2023-07-24T22:19:07;24.90;78.80
17827;DHT22;9038;48.208;16.308;2023-07-24T22:21:08;24.90;78.80
17827;DHT22;9038;48.208;16.308;2023-07-24T22:23:09;24.90;78.90
17827;DHT22;9038;48.208;16.308;2023-07-24T22:25:11;24.90;79.80
17827;DHT22;9038;48.208;16.308;2023-07-24T22:27:13;25.00;78.70
17827;DHT22;9038;48.208;16.308;2023-07-24T22:29:14;25.00;78.00
17827;DHT22;9038;48.208;16.308;2023-07-24T22:31:16;25.10;77.50
17827;DHT22;9038;48.208;16.308;2023-07-24T22:33:19;25.10;77.30
17827;DHT22;9038;48.208;16.308;2023-07-24T22:35:21;25.20;77.10
17827;DHT22;9038;48.208;16.308;2023-07-24T22:37:21;25.20;76.90
17827;DHT22;9038;48.208;16.308;2023-07-24T22:39:23;25.20;76.50
17827;DHT22;9038;48.208;16.308;2023-07-24T22:41:25;25.30;76.40
17827;DHT22;9038;48.208;16.308;2023-07-24T22:43:27;25.30;76.40
17827;DHT22;9038;48.208;16.308;2023-07-24T22:45:30;25.30;75.70
17827;DHT22;9038;48.208;16.308;2023-07-24T22:47:32;25.40;75.30
17827;DHT22;9038;48.208;16.308;2023-07-24T22:49:35;25.40;74.80
17827;DHT22;9038;48.208;16.308;2023-07-24T22:51:37;25.40;74.30
17827;DHT22;9038;48.208;16.308;2023-07-24T22:53:38;25.50;74.40
17827;DHT22;9038;48.208;16.308;2023-07-24T22:55:40;25.50;74.50
17827;DHT22;9038;48.208;16.308;2023-07-24T22:57:42;25.60;74.80
17827;DHT22;9038;48.208;16.308;2023-07-24T22:59:43;25.70;74.90
17827;DHT22;9038;48.208;16.308;2023-07-24T23:01:44;25.70;75.10
17827;DHT22;9038;48.208;16.308;2023-07-24T23:03:46;25.70;74.20
17827;DHT22;9038;48.208;16.308;2023-07-24T23:05:50;25.70;74.30
17827;DHT22;9038;48.208;16.308;2023-07-24T23:07:52;25.70;75.30
17827;DHT22;9038;48.208;16.308;2023-07-24T23:09:55;25.70;75.00
17827;DHT22;9038;48.208;16.308;2023-07-24T23:11:57;25.80;75.50
17827;DHT22;9038;48.208;16.308;2023-07-24T23:13:58;25.70;75.80
17827;DHT22;9038;48.208;16.308;2023-07-24T23:15:59;25.70;76.00
17827;DHT22;9038;48.208;16.308;2023-07-24T23:18:01;25.60;76.20
17827;DHT22;9038;48.208;16.308;2023-07-24T23:20:03;25.60;76.20